Time;durP1;ratioP1;P1;durP2;ratioP2;P2;SDS_P1;SDS_P2;PMS_P1;PMS_P2;Temp;Humidity;BMP_temperature;BMP_pressure;BME280_temperature;BME280_humidity;BME280_pressure;Samples;Min_cycle;Max_cycle;Signal;HPM_P1;HPM_P2
2021/05/11 00:00:41;;;;;;;4.10;2.08;;;;;;;4.33;76.58;96941.34;4907684;29;20139;-68
2021/05/11 00:03:07;;;;;;;3.00;1.77;;;;;;;6.41;78.12;97263.16;4908359;29;20046;-69
2021/05/11 00:05:33;;;;;;;2.78;2.00;;;;;;;7.65;77.29;97448.94;4907623;29;20028;-69
2021/05/11 00:07:58;;;;;;;4.05;2.15;;;;;;;7.31;78.08;97396.97;4906229;29;20131;-70
2021/05/11 00:10:25;;;;;;;2.97;2.15;;;;;;;7.51;77.95;97440.19;4907931;29;20115;-69
2021/05/11 00:12:51;;;;;;;2.90;2.22;;;;;;;7.40;78.25;97439.03;4908142;29;20060;-69
2021/05/11 00:15:18;;;;;;;3.65;2.28;;;;;;;7.02;77.84;97386.09;4907425;29;20036;-69
2021/05/11 00:17:45;;;;;;;2.83;1.90;;;;;;;7.34;78.34;97451.41;4907988;29;20036;-69
2021/05/11 00:20:11;;;;;;;4.55;2.30;;;;;;;7.25;77.78;97425.91;4907522;29;20444;-68
2021/05/11 00:22:37;;;;;;;2.60;2.08;;;;;;;7.09;77.58;97405.63;4906180;29;20036;-69
2021/05/11 00:25:03;;;;;;;2.60;2.17;;;;;;;6.83;77.12;97380.28;4907625;29;20032;-69
2021/05/11 00:27:28;;;;;;;4.03;2.28;;;;;;;7.20;77.75;97423.34;4907882;29;20036;-70
2021/05/11 00:29:53;;;;;;;8.10;1.98;;;;;;;7.22;77.14;97429.31;4907969;29;20040;-68
2021/05/11 00:32:56;;;;;;;4.20;2.30;;;;;;;7.14;77.89;97437.66;4907027;29;20055;-69
2021/05/11 00:35:22;;;;;;;2.40;2.00;;;;;;;7.12;77.17;97432.50;4905809;29;20722;-69
2021/05/11 00:37:47;;;;;;;6.00;2.45;;;;;;;6.18;78.07;97292.13;4907788;29;20124;-68
2021/05/11 00:40:13;;;;;;;2.72;2.03;;;;;;;6.40;78.53;97344.09;4907160;29;20176;-69
2021/05/11 00:42:39;;;;;;;3.42;2.60;;;;;;;6.35;78.92;97338.78;4907688;29;20118;-69
2021/05/11 00:45:06;;;;;;;4.80;2.83;;;;;;;6.93;78.57;97423.94;4907703;29;20047;-69
2021/05/11 00:47:32;;;;;;;3.30;2.33;;;;;;;6.13;78.38;97311.59;4907939;29;20036;-68
2021/05/11 00:49:57;;;;;;;3.78;2.40;;;;;;;6.12;77.41;97301.72;4907640;29;20098;-69
2021/05/11 00:52:23;;;;;;;2.95;1.90;;;;;;;6.92;78.05;97427.84;4906922;29;20040;-69
2021/05/11 00:54:49;;;;;;;4.75;2.53;;;;;;;7.02;77.70;97421.06;4905941;29;20098;-69
2021/05/11 00:57:15;;;;;;;4.22;2.75;;;;;;;6.14;77.27;97263.69;4907402;29;20036;-69
2021/05/11 00:59:40;;;;;;;2.60;2.00;;;;;;;6.86;77.68;97393.38;4905864;29;20063;-68
2021/05/11 01:02:08;;;;;;;3.85;2.20;;;;;;;6.90;77.76;97421.84;4910248;29;20052;-69
2021/05/11 01:04:35;;;;;;;3.28;2.10;;;;;;;6.69;78.14;97389.94;4911522;29;20040;-67
2021/05/11 01:07:01;;;;;;;4.63;2.10;;;;;;;6.83;78.15;97407.03;4909698;29;20554;-68
2021/05/11 01:09:27;;;;;;;3.88;1.90;;;;;;;6.72;78.98;97406.59;4911363;29;20024;-68
2021/05/11 01:11:56;;;;;;;4.85;2.40;;;;;;;6.75;78.63;97405.16;4910581;29;20507;-68
2021/05/11 01:14:23;;;;;;;3.65;2.20;;;;;;;6.70;78.25;97388.81;4910810;29;20040;-68
2021/05/11 01:16:54;;;;;;;4.68;2.17;;;;;;;6.69;78.53;97374.25;4910483;29;20043;-68
2021/05/11 01:19:25;;;;;;;4.55;2.00;;;;;;;4.20;77.85;96974.50;4909488;29;20039;-68
2021/05/11 01:24:37;;;;;;;3.00;2.17;;;;;;;6.93;78.14;97401.91;4911242;29;20039;-69
2021/05/11 01:27:27;;;;;;;4.78;1.83;;;;;;;6.93;77.74;97407.41;4910808;29;20036;-68
2021/05/11 01:48:57;;;;;;;9.32;4.38;;;;;;;5.83;80.12;97330.06;4910792;29;20200;-68
2021/05/11 01:51:31;;;;;;;5.38;2.10;;;;;;;6.24;80.42;97378.81;4908569;29;20036;-67
2021/05/11 01:54:19;;;;;;;6.55;2.15;;;;;;;5.98;81.45;97380.91;4908997;29;20036;-67
2021/05/11 02:22:38;;;;;;;3.20;2.20;;;;;;;5.34;80.57;97283.28;4908724;29;20059;-67
2021/05/11 02:24:05;;;;;;;2.38;1.98;;;;;;;5.81;81.44;97381.00;4909571;29;20046;-67
2021/05/11 02:26:30;;;;;;;2.42;2.03;;;;;;;5.79;81.46;97377.75;4907066;29;20463;-68
2021/05/11 02:28:55;;;;;;;2.83;1.67;;;;;;;5.81;81.39;97370.00;4908770;29;20040;-70
2021/05/11 02:31:21;;;;;;;5.38;2.53;;;;;;;5.81;81.88;97370.81;4908096;29;20245;-69
2021/05/11 02:33:46;;;;;;;5.05;2.22;;;;;;;5.72;81.83;97356.28;4907030;29;20088;-69
2021/05/11 02:36:12;;;;;;;2.97;2.10;;;;;;;4.82;81.65;97221.50;4908472;29;20032;-70
2021/05/11 02:38:37;;;;;;;2.60;2.08;;;;;;;5.75;81.69;97404.31;4908495;29;20032;-69
2021/05/11 02:41:03;;;;;;;2.33;2.00;;;;;;;5.77;81.55;97374.56;4908020;29;20538;-69
2021/05/11 02:46:50;;;;;;;3.00;1.85;;;;;;;5.22;81.16;97285.91;4908590;29;20549;-69
2021/05/11 02:49:18;;;;;;;3.55;2.40;;;;;;;5.02;80.89;97281.97;4908744;29;20043;-69
2021/05/11 02:51:43;;;;;;;6.18;2.83;;;;;;;5.10;81.22;97278.41;4907795;29;20119;-68
2021/05/11 02:54:09;;;;;;;4.13;3.30;;;;;;;5.36;80.69;97306.53;4908386;29;20040;-69
2021/05/11 02:56:34;;;;;;;3.45;2.30;;;;;;;5.82;80.31;97366.13;4906279;29;20126;-69
2021/05/11 02:58:59;;;;;;;4.47;2.20;;;;;;;5.68;80.68;97365.53;4886712;29;657974;-69
2021/05/11 03:01:25;;;;;;;3.55;2.40;;;;;;;5.15;81.25;97296.63;4908816;29;20051;-69
2021/05/11 03:03:50;;;;;;;2.42;1.85;;;;;;;5.64;81.14;97386.56;4909963;29;20052;-69
2021/05/11 03:06:16;;;;;;;8.45;2.08;;;;;;;5.69;80.98;97383.66;4909001;29;20031;-68
2021/05/11 03:08:44;;;;;;;3.92;2.33;;;;;;;5.48;80.34;97360.78;4909102;29;20095;-69
2021/05/11 03:11:09;;;;;;;5.35;2.50;;;;;;;5.51;81.03;97376.59;4908588;29;20116;-69
2021/05/11 03:13:35;;;;;;;5.40;3.10;;;;;;;4.95;80.77;97283.63;4908877;29;20119;-69
2021/05/11 03:16:00;;;;;;;4.32;2.80;;;;;;;5.55;80.73;97383.84;4908442;29;20032;-68
2021/05/11 03:18:26;;;;;;;2.85;2.05;;;;;;;5.47;80.85;97375.66;4907794;29;20031;-69
2021/05/11 03:20:51;;;;;;;4.80;2.10;;;;;;;5.21;81.26;97361.19;4906828;29;20039;-69
2021/05/11 03:23:17;;;;;;;4.95;2.20;;;;;;;4.62;81.85;97243.03;4907042;29;20036;-69
2021/05/11 03:25:42;;;;;;;2.40;1.90;;;;;;;5.63;81.67;97390.44;4908751;29;20063;-69
2021/05/11 03:28:08;;;;;;;20.00;3.00;;;;;;;5.12;81.16;97306.31;4909038;29;20411;-69
2021/05/11 03:30:33;;;;;;;19.90;3.40;;;;;;;5.67;81.44;97396.91;4906662;29;20051;-69
2021/05/11 03:32:58;;;;;;;18.52;4.13;;;;;;;5.48;81.20;97328.63;4908764;29;20024;-69
2021/05/11 03:35:24;;;;;;;11.55;2.70;;;;;;;5.39;80.42;97324.31;4908041;29;20048;-69
2021/05/11 03:37:49;;;;;;;8.15;2.88;;;;;;;5.40;80.47;97309.44;4908620;29;20456;-70
2021/05/11 03:40:15;;;;;;;9.63;2.70;;;;;;;6.09;79.69;97398.66;4906551;29;20036;-69
2021/05/11 03:42:50;;;;;;;13.50;3.65;;;;;;;6.08;79.50;97402.53;4909177;29;20119;-69
2021/05/11 03:45:16;;;;;;;6.07;2.90;;;;;;;6.15;79.15;97408.31;4908228;29;20040;-69
2021/05/11 03:47:45;;;;;;;6.63;2.88;;;;;;;5.12;78.58;97214.91;4906829;29;20102;-69
2021/05/11 03:50:14;;;;;;;7.25;2.80;;;;;;;5.42;78.06;97250.28;4907539;29;20166;-69
2021/05/11 03:52:39;;;;;;;5.22;3.67;;;;;;;6.52;77.52;97388.16;4908282;29;20031;-67
2021/05/11 03:55:05;;;;;;;10.88;4.10;;;;;;;6.67;77.29;97386.75;4907866;29;20563;-68
2021/05/11 03:57:31;;;;;;;10.25;5.47;;;;;;;6.28;76.31;97319.25;4906582;29;20028;-68
2021/05/11 03:59:56;;;;;;;13.52;5.50;;;;;;;6.84;75.68;97392.09;4908177;29;20084;-69
2021/05/11 04:02:21;;;;;;;16.83;6.10;;;;;;;6.89;75.68;97398.19;4908004;29;20468;-70
2021/05/11 04:04:47;;;;;;;10.05;5.28;;;;;;;7.14;74.49;97397.16;4906610;29;20039;-70
2021/05/11 04:07:14;;;;;;;13.77;4.15;;;;;;;7.23;73.84;97395.13;4905765;29;20050;-70
2021/05/11 04:09:50;;;;;;;8.00;3.55;;;;;;;7.16;74.90;97383.06;4908070;29;20044;-70
2021/05/11 04:18:00;;;;;;;7.78;3.97;;;;;;;7.58;73.97;97390.84;4906434;29;20823;-70
2021/05/11 04:20:26;;;;;;;9.65;3.30;;;;;;;7.70;73.37;97374.28;4906558;29;20036;-70
2021/05/11 04:22:51;;;;;;;9.55;3.70;;;;;;;7.96;72.73;97367.63;4908337;29;20068;-70
2021/05/11 04:25:17;;;;;;;7.80;3.65;;;;;;;7.98;71.47;97373.63;4905748;29;20039;-70
2021/05/11 04:27:42;;;;;;;10.18;3.83;;;;;;;8.14;71.24;97375.31;4906237;29;20074;-69
2021/05/11 04:30:09;;;;;;;12.32;4.05;;;;;;;8.34;70.18;97359.81;4907114;29;20368;-70
2021/05/11 04:32:34;;;;;;;10.00;3.88;;;;;;;8.08;72.14;97371.19;4907779;29;20043;-69
2021/05/11 04:35:00;;;;;;;4.90;3.38;;;;;;;8.27;72.17;97371.44;4907420;29;20048;-70
2021/05/11 04:37:25;;;;;;;8.82;3.60;;;;;;;8.29;71.38;97354.53;4907877;29;20097;-71
2021/05/11 04:39:52;;;;;;;8.27;3.88;;;;;;;8.37;71.48;97359.09;4908091;29;20044;-69
2021/05/11 04:42:17;;;;;;;13.25;4.40;;;;;;;8.18;73.78;97376.25;4905544;29;20083;-70
2021/05/11 04:44:43;;;;;;;7.28;3.90;;;;;;;7.85;74.21;97311.34;4907299;29;20044;-70
2021/05/11 04:47:18;;;;;;;14.48;3.70;;;;;;;8.30;73.46;97336.84;4905454;29;20818;-69
2021/05/11 04:49:43;;;;;;;6.57;3.50;;;;;;;8.61;72.35;97367.34;4907616;29;20583;-70
2021/05/11 04:52:12;;;;;;;14.40;3.90;;;;;;;8.68;71.75;97362.81;4907167;29;20040;-70
2021/05/11 04:54:37;;;;;;;7.00;3.53;;;;;;;7.96;70.47;97182.84;4907312;29;20996;-70
2021/05/11 04:57:04;;;;;;;5.03;3.22;;;;;;;9.10;70.08;97346.66;4907346;29;20047;-69
2021/05/11 04:59:29;;;;;;;4.03;3.20;;;;;;;9.19;69.16;97344.53;4905772;29;20060;-69
2021/05/11 05:01:56;;;;;;;7.50;3.63;;;;;;;9.39;67.97;97337.94;4906838;29;20388;-70
2021/05/11 05:04:22;;;;;;;8.13;4.10;;;;;;;9.51;67.40;97335.13;4906016;29;20545;-69
2021/05/11 05:06:47;;;;;;;8.75;4.30;;;;;;;8.96;66.41;97246.81;4906881;29;20032;-69
2021/05/11 05:09:13;;;;;;;8.23;4.25;;;;;;;9.58;66.15;97302.09;4907442;29;20024;-70
2021/05/11 05:11:41;;;;;;;9.15;4.40;;;;;;;9.50;65.22;97260.81;4906621;29;20475;-68
2021/05/11 05:14:10;;;;;;;10.20;5.63;;;;;;;6.62;64.28;96955.69;4906086;29;20054;-68
2021/05/11 05:16:36;;;;;;;8.73;4.80;;;;;;;10.32;63.93;97332.34;4907068;29;20100;-69
2021/05/11 05:19:05;;;;;;;6.07;4.22;;;;;;;10.46;63.50;97338.22;4906339;29;20028;-69
2021/05/11 05:21:31;;;;;;;8.68;4.63;;;;;;;10.56;62.41;97343.19;4904186;29;20039;-69
2021/05/11 05:24:05;;;;;;;7.38;4.30;;;;;;;10.23;62.58;97267.28;4906587;29;20421;-69
2021/05/11 05:26:30;;;;;;;;;;;;;;;10.38;63.95;97342.00;4904560;29;20040;-69
2021/05/11 05:28:58;;;;;;;6.43;4.20;;;;;;;10.47;63.50;97345.38;4904251;29;20292;-69
2021/05/11 05:31:23;;;;;;;6.18;4.50;;;;;;;10.64;62.97;97339.41;4904337;29;20036;-69
2021/05/11 05:33:49;;;;;;;5.90;4.68;;;;;;;9.99;63.55;97217.72;4904668;29;20043;-69
2021/05/11 05:36:14;;;;;;;10.95;5.35;;;;;;;9.99;63.97;97207.41;4906062;29;20040;-69
2021/05/11 05:38:41;;;;;;;6.15;4.50;;;;;;;10.06;63.59;97168.03;4895321;29;20047;-70
2021/05/11 05:41:23;;;;;;;8.52;5.15;;;;;;;11.45;62.44;97341.03;4902054;29;20082;-69
2021/05/11 05:43:49;;;;;;;10.85;4.25;;;;;;;11.28;61.28;97271.34;4890519;29;20228;-68
2021/05/11 05:46:15;;;;;;;7.97;4.57;;;;;;;11.74;60.72;97339.59;4899672;29;20349;-69
2021/05/11 05:48:41;;;;;;;7.18;4.30;;;;;;;11.63;61.49;97341.38;4897645;29;20128;-68
2021/05/11 05:51:07;;;;;;;6.13;4.72;;;;;;;11.87;61.36;97346.56;4899603;29;20488;-64
2021/05/11 05:53:41;;;;;;;10.10;4.45;;;;;;;11.73;61.28;97352.66;4901957;29;20044;-68
2021/05/11 05:56:07;;;;;;;6.38;4.07;;;;;;;11.15;64.41;97364.19;4906768;29;20047;-68
2021/05/11 05:58:34;;;;;;;5.95;4.07;;;;;;;10.52;62.60;97180.88;4897884;29;20084;-68
2021/05/11 06:01:05;;;;;;;6.57;3.40;;;;;;;11.87;61.93;97336.22;4898062;29;20044;-66
2021/05/11 06:03:38;;;;;;;5.18;3.67;;;;;;;11.93;59.80;97339.50;4909747;29;20040;-63
2021/05/11 06:06:09;;;;;;;5.28;3.47;;;;;;;10.40;61.94;97184.59;4907178;29;20043;-68
2021/05/11 06:08:36;;;;;;;8.45;3.50;;;;;;;11.27;62.18;97325.22;4895943;29;20063;-64
2021/05/11 06:19:14;;;;;;;7.18;3.45;;;;;;;12.14;58.11;97273.19;4902870;29;20171;-69
2021/05/11 06:21:40;;;;;;;3.70;3.05;;;;;;;11.43;56.62;97096.50;4893494;29;20052;-68
2021/05/11 06:24:06;;;;;;;3.28;2.88;;;;;;;12.34;55.29;97233.00;4898039;29;20032;-68
2021/05/11 06:26:32;;;;;;;4.65;2.95;;;;;;;13.19;55.48;97316.28;4900482;29;20036;-73
2021/05/11 06:29:00;;;;;;;6.72;2.60;;;;;;;13.55;53.69;97321.03;4895341;29;20052;-67
2021/05/11 06:31:25;;;;;;;5.18;3.10;;;;;;;12.40;53.45;97175.94;4891882;29;20194;-63
2021/05/11 06:33:51;;;;;;;8.30;3.00;;;;;;;12.41;52.84;97110.84;4903981;29;20036;-68
2021/05/11 06:36:16;;;;;;;4.97;2.80;;;;;;;13.44;52.28;97344.38;4903808;29;20084;-63
2021/05/11 06:38:42;;;;;;;2.80;2.58;;;;;;;13.97;51.29;97314.25;4916788;29;20051;-66
2021/05/11 06:41:08;;;;;;;7.38;3.08;;;;;;;13.94;50.94;97320.59;4899281;29;20036;-61
2021/05/11 06:43:35;;;;;;;4.53;3.75;;;;;;;13.85;51.65;97284.69;4903131;29;20100;-60
2021/05/11 06:54:11;;;;;;;3.22;2.80;;;;;;;13.35;49.58;97110.16;4904933;29;20135;-70
2021/05/11 06:56:44;;;;;;;3.15;2.75;;;;;;;13.74;49.20;97147.41;4890573;29;20188;-65
2021/05/11 06:59:11;;;;;;;2.97;2.67;;;;;;;13.82;49.73;97213.06;4889024;29;20063;-65
2021/05/11 07:01:36;;;;;;;3.05;2.78;;;;;;;12.50;49.78;96924.41;4890658;29;20040;-69
2021/05/11 07:04:02;;;;;;;2.92;2.50;;;;;;;14.41;48.52;97143.00;4892368;29;20035;-70
2021/05/11 07:06:27;;;;;;;2.65;2.50;;;;;;;14.03;47.73;97081.50;4914056;29;20060;-71
2021/05/11 07:08:57;;;;;;;3.03;2.83;;;;;;;15.97;46.98;97293.59;4898515;29;20044;-71
2021/05/11 07:13:49;;;;;;;6.38;2.67;;;;;;;14.16;48.86;97188.63;4896730;29;20044;-65
2021/05/11 07:16:14;;;;;;;4.28;3.22;;;;;;;12.12;46.98;96792.41;4907681;29;20111;-70
2021/05/11 07:18:40;;;;;;;6.57;2.63;;;;;;;15.03;46.96;97161.06;4923031;29;20127;-62
2021/05/11 07:21:05;;;;;;;2.70;2.50;;;;;;;14.74;46.03;97080.53;4906816;29;20063;-66
2021/05/11 07:23:31;;;;;;;6.43;3.33;;;;;;;15.85;46.30;97274.44;4889088;29;20040;-64
2021/05/11 07:30:56;;;;;;;7.20;2.65;;;;;;;16.01;46.06;97266.44;4899845;29;20437;-61
2021/05/11 07:33:24;;;;;;;3.35;3.05;;;;;;;16.37;44.78;97262.41;4897742;29;20224;-63
2021/05/11 07:35:50;;;;;;;3.35;2.92;;;;;;;13.89;45.02;96867.03;4906051;29;20106;-65
2021/05/11 07:38:15;;;;;;;6.63;3.13;;;;;;;16.41;44.97;97257.59;4907161;29;20686;-64
2021/05/11 07:40:41;;;;;;;4.10;2.92;;;;;;;16.18;44.89;97204.16;4905374;29;20044;-64
2021/05/11 07:43:07;;;;;;;6.28;3.17;;;;;;;16.30;45.18;97250.44;4895487;29;20076;-62
2021/05/11 08:17:41;;;;;;;7.15;3.83;;;;;;;18.01;43.14;97226.34;4899563;29;20536;-71
2021/05/11 08:22:56;;;;;;;4.78;4.07;;;;;;;18.30;43.14;97240.88;4890986;29;20074;-70
2021/05/11 08:28:10;;;;;;;;;;;;;;;18.43;41.92;97230.75;4896026;29;20080;-65
2021/05/11 08:30:36;;;;;;;5.07;3.80;;;;;;;17.95;42.59;97179.53;4900575;29;19927;-65
2021/05/11 08:33:01;;;;;;;4.40;3.45;;;;;;;16.89;43.05;97103.97;4889838;29;20055;-71
2021/05/11 08:35:27;;;;;;;3.72;3.40;;;;;;;17.35;44.47;97218.44;4904874;29;20051;-63
2021/05/11 08:37:52;;;;;;;3.97;3.15;;;;;;;16.92;44.39;97180.69;4913752;29;20483;-65
2021/05/11 08:40:18;;;;;;;3.47;3.17;;;;;;;17.84;43.04;97216.09;4893015;29;20036;-67
2021/05/11 08:42:43;;;;;;;6.40;3.60;;;;;;;16.78;43.84;97094.84;4890836;29;20076;-66
2021/05/11 08:45:11;;;;;;;4.88;3.53;;;;;;;17.96;43.91;97211.97;4909305;29;20127;-68
2021/05/11 08:47:48;;;;;;;3.97;3.28;;;;;;;18.21;42.92;97164.84;4925700;29;20464;-71
2021/05/11 09:04:38;;;;;;;3.67;3.28;;;;;;;18.54;42.17;97169.69;4911053;29;20241;-63
2021/05/11 09:07:54;;;;;;;5.75;4.15;;;;;;;18.90;42.25;97196.13;4892367;29;20389;-61
2021/05/11 09:26:51;;;;;;;3.88;3.30;;;;;;;18.82;41.13;97146.09;4921046;29;20036;-68
2021/05/11 10:41:45;;;;;;;3.58;3.28;;;;;;;22.57;34.89;97085.84;4928100;29;20094;-65
2021/05/11 10:49:27;;;;;;;3.67;3.38;;;;;;;22.26;34.98;97083.47;4924370;29;20070;-64
2021/05/11 10:52:31;;;;;;;4.03;3.38;;;;;;;20.54;35.95;96766.06;4913527;29;20135;-64
2021/05/11 10:55:21;;;;;;;5.05;3.80;;;;;;;22.27;34.52;96977.78;4892304;29;20095;-61
2021/05/11 10:57:59;;;;;;;6.82;4.50;;;;;;;22.18;33.75;96957.91;4909733;29;20120;-63
2021/05/11 11:03:22;;;;;;;5.05;4.25;;;;;;;23.19;33.63;97076.66;4908373;29;20590;-63
2021/05/11 11:05:54;;;;;;;4.30;3.95;;;;;;;22.87;33.79;97072.00;4922201;29;20124;-60
2021/05/11 11:08:38;;;;;;;4.22;3.83;;;;;;;23.01;34.13;97073.59;4890403;29;20552;-63
2021/05/11 11:11:20;;;;;;;4.03;3.75;;;;;;;22.11;34.35;96944.00;4909594;29;20036;-62
2021/05/11 11:13:46;;;;;;;4.95;3.90;;;;;;;22.95;34.32;97055.63;4922492;29;20148;-62
2021/05/11 11:16:13;;;;;;;6.15;4.28;;;;;;;23.17;33.96;97053.69;4924353;29;20109;-64
2021/05/11 11:18:39;;;;;;;4.05;3.83;;;;;;;23.27;34.03;97061.06;4923411;29;20383;-62
2021/05/11 11:23:53;;;;;;;4.82;3.97;;;;;;;22.96;35.02;97014.81;4912191;29;20048;-63
2021/05/11 11:26:32;;;;;;;4.55;4.25;;;;;;;23.70;33.73;96993.31;4908049;29;20710;-60
2021/05/11 11:29:06;;;;;;;4.63;4.22;;;;;;;24.25;32.84;97032.16;4905948;29;20040;-62
2021/05/11 11:31:33;;;;;;;4.63;3.80;;;;;;;24.50;32.40;97034.84;4906121;29;20171;-62
2021/05/11 11:34:23;;;;;;;4.47;4.07;;;;;;;23.95;33.03;97027.19;4904415;29;20528;-63
2021/05/11 11:36:49;;;;;;;3.90;3.60;;;;;;;23.50;34.08;97029.59;4922064;29;20032;-63
2021/05/11 11:39:18;;;;;;;4.07;3.85;;;;;;;23.78;33.20;97028.59;4927440;29;20027;-62
2021/05/11 11:41:43;;;;;;;4.20;3.80;;;;;;;23.48;33.51;97043.38;4925139;29;20070;-62
2021/05/11 11:44:11;;;;;;;4.35;3.95;;;;;;;23.62;33.40;97038.03;4919772;29;20063;-64
2021/05/11 11:46:37;;;;;;;3.75;3.42;;;;;;;23.61;32.74;96979.09;4918553;29;20034;-62
2021/05/11 11:49:05;;;;;;;5.07;4.18;;;;;;;24.09;33.16;97023.09;4907922;29;20135;-63
2021/05/11 11:51:34;;;;;;;5.97;4.90;;;;;;;23.60;32.78;96995.28;4905842;29;20151;-63
2021/05/11 11:54:30;;;;;;;4.10;3.85;;;;;;;24.11;32.69;97012.88;4908607;29;20066;-62
2021/05/11 11:59:35;;;;;;;4.00;3.70;;;;;;;23.69;33.27;96949.31;4921273;29;20064;-63
2021/05/11 12:02:04;;;;;;;4.38;4.10;;;;;;;24.56;32.82;97001.88;4916498;29;20502;-62
2021/05/11 12:04:31;;;;;;;4.05;3.85;;;;;;;22.37;32.12;96626.66;4915897;29;20054;-64
2021/05/11 12:07:05;;;;;;;4.28;3.97;;;;;;;24.71;31.68;96997.25;4924746;29;20027;-61
2021/05/11 12:09:31;;;;;;;4.68;4.32;;;;;;;22.85;32.25;96714.91;4926825;29;20063;-67
2021/05/11 12:12:00;;;;;;;4.10;3.80;;;;;;;24.79;31.79;96987.22;4915477;29;20040;-62
2021/05/11 12:14:26;;;;;;;4.22;3.92;;;;;;;24.62;31.58;96946.19;4916590;29;20105;-67
2021/05/11 12:16:51;;;;;;;4.40;4.10;;;;;;;25.24;31.26;96947.66;4924306;29;20043;-69
2021/05/11 12:19:23;;;;;;;4.68;4.28;;;;;;;25.53;30.63;96946.50;4913312;29;20032;-66
2021/05/11 12:22:01;;;;;;;4.82;4.53;;;;;;;25.64;32.02;96969.53;4908018;29;20059;-62
2021/05/11 12:24:29;;;;;;;4.38;4.15;;;;;;;24.56;32.40;96965.03;4921210;29;20435;-62
2021/05/11 12:27:24;;;;;;;4.15;3.95;;;;;;;24.58;33.19;96958.91;4940031;29;20028;-62
2021/05/11 12:30:18;;;;;;;4.10;3.70;;;;;;;24.35;33.02;96931.88;4894711;29;20120;-62
2021/05/11 12:32:44;;;;;;;9.85;5.03;;;;;;;24.80;32.45;96960.44;4905867;29;20032;-66
2021/05/11 12:35:16;;;;;;;4.95;4.65;;;;;;;24.27;32.48;96868.28;4907262;29;20197;-64
2021/05/11 12:37:56;;;;;;;4.07;3.80;;;;;;;24.48;33.06;96938.25;4903149;29;20052;-64
2021/05/11 12:40:31;;;;;;;4.57;4.22;;;;;;;25.39;32.62;96947.13;4906522;29;20044;-61
2021/05/11 12:43:00;;;;;;;4.55;4.28;;;;;;;25.04;30.04;96652.47;4899773;29;20268;-63
2021/05/11 12:45:26;;;;;;;4.78;4.47;;;;;;;28.04;28.46;96887.03;4885667;29;20039;-63
2021/05/11 12:47:59;;;;;;;4.97;4.65;;;;;;;27.47;29.00;96853.53;4902199;29;20041;-63
2021/05/11 12:50:28;;;;;;;5.88;4.88;;;;;;;27.22;28.74;96763.75;4928213;29;20052;-67
2021/05/11 12:52:55;;;;;;;5.45;5.05;;;;;;;27.83;28.15;96854.00;4909263;29;20059;-64
2021/05/11 12:59:02;;;;;;;6.50;6.03;;;;;;;28.73;25.06;96577.69;4921204;29;20052;-63
2021/05/11 13:01:27;;;;;;;5.65;5.28;;;;;;;30.54;24.94;96906.44;4911470;29;20063;-65
2021/05/11 13:25:04;;;;;;;5.10;4.70;;;;;;;25.95;32.32;96814.00;4916182;29;20044;-66
2021/05/11 13:26:10;;;;;;;7.75;5.07;;;;;;;25.83;31.57;96783.78;4891877;29;20076;-67
2021/05/11 13:34:10;;;;;;;6.03;4.28;;;;;;;25.70;33.08;96897.47;4917708;29;20048;-67
2021/05/11 13:36:41;;;;;;;4.60;4.22;;;;;;;24.52;33.91;96825.59;4916461;29;20032;-66
2021/05/11 13:39:09;;;;;;;4.82;4.53;;;;;;;24.49;33.89;96806.69;4910164;29;20040;-65
2021/05/11 13:41:34;;;;;;;5.10;4.70;;;;;;;24.92;34.14;96849.03;4908021;29;20354;-65
2021/05/11 13:44:00;;;;;;;4.68;4.03;;;;;;;24.19;35.19;96787.72;4909614;29;20696;-65
2021/05/11 13:46:26;;;;;;;4.40;4.03;;;;;;;22.61;35.05;96527.41;4913338;29;20036;-68
2021/05/11 13:48:52;;;;;;;4.47;4.13;;;;;;;24.98;34.83;96883.97;4921688;29;20044;-63
2021/05/11 13:51:20;;;;;;;4.95;4.13;;;;;;;25.14;35.33;96875.19;4928869;29;20031;-64
2021/05/11 13:53:51;;;;;;;4.53;4.22;;;;;;;25.62;35.03;96875.56;4928918;29;20036;-64
2021/05/11 13:56:28;;;;;;;4.45;4.15;;;;;;;25.13;35.50;96861.50;4927104;29;20059;-64
2021/05/11 14:04:23;;;;;;;6.35;4.15;;;;;;;24.55;35.79;96804.81;4922174;29;20471;-62
2021/05/11 14:06:49;;;;;;;5.30;4.45;;;;;;;24.90;34.20;96831.69;4910142;29;20039;-63
2021/05/11 14:09:15;;;;;;;5.60;4.93;;;;;;;25.20;34.32;96827.13;4909862;29;20036;-62
2021/05/11 14:11:40;;;;;;;7.53;5.43;;;;;;;25.27;35.08;96867.34;4909264;29;20384;-62
2021/05/11 14:14:08;;;;;;;6.20;5.63;;;;;;;25.50;34.47;96746.03;4909952;29;20085;-63
2021/05/11 14:16:33;;;;;;;5.18;4.70;;;;;;;26.95;32.11;96788.78;4907283;29;20039;-62
2021/05/11 14:18:59;;;;;;;6.03;5.63;;;;;;;26.50;33.33;96855.97;4907926;29;20070;-62
2021/05/11 14:21:25;;;;;;;5.47;5.07;;;;;;;26.15;33.35;96714.88;4907885;29;20044;-62
2021/05/11 14:23:52;;;;;;;4.65;4.32;;;;;;;25.76;34.80;96846.53;4907989;29;20207;-63
2021/05/11 14:26:19;;;;;;;5.30;4.20;;;;;;;26.95;33.32;96846.47;4908922;29;20032;-63
2021/05/11 14:28:45;;;;;;;4.80;4.50;;;;;;;26.77;33.54;96840.88;4909398;29;20088;-63
2021/05/11 14:31:11;;;;;;;6.00;5.50;;;;;;;27.43;32.74;96833.78;4907148;29;20088;-62
2021/05/11 14:33:36;;;;;;;7.03;5.07;;;;;;;28.25;31.17;96833.78;4909462;29;20036;-62
2021/05/11 14:36:02;;;;;;;4.85;4.60;;;;;;;27.41;31.80;96809.94;4909293;29;20027;-62
2021/05/11 14:38:27;;;;;;;5.25;4.85;;;;;;;26.44;34.54;96840.84;4910373;29;20490;-62
2021/05/11 14:40:55;;;;;;;5.15;4.60;;;;;;;26.08;34.75;96840.97;4909224;29;20120;-62
2021/05/11 14:43:20;;;;;;;5.43;4.55;;;;;;;26.87;31.42;96679.56;4909272;29;20029;-63
2021/05/11 14:45:46;;;;;;;5.68;5.28;;;;;;;27.05;32.18;96836.56;4908982;29;20107;-63
2021/05/11 14:48:11;;;;;;;7.57;4.70;;;;;;;28.50;29.91;96798.22;4909332;29;20476;-63
2021/05/11 14:50:37;;;;;;;5.72;5.18;;;;;;;28.39;28.67;96684.00;4908859;29;20515;-65
2021/05/11 14:53:02;;;;;;;9.05;5.43;;;;;;;30.06;27.57;96826.19;4923490;29;20087;-63
2021/05/11 14:55:28;;;;;;;10.60;5.75;;;;;;;30.40;27.82;96816.63;4909239;29;20055;-62
2021/05/11 14:57:54;;;;;;;5.43;5.00;;;;;;;29.03;28.63;96810.13;4907551;29;20518;-63
2021/05/11 15:00:20;;;;;;;7.55;6.85;;;;;;;28.82;29.51;96797.09;4906935;29;20064;-62
2021/05/11 15:02:45;;;;;;;6.20;5.80;;;;;;;28.85;29.27;96801.84;4907551;29;20036;-64
2021/05/11 15:05:12;;;;;;;7.53;6.55;;;;;;;28.02;30.07;96778.50;4908591;29;20036;-62
2021/05/11 15:07:37;;;;;;;6.35;5.60;;;;;;;28.64;29.53;96797.38;4909149;29;20035;-63
2021/05/11 15:10:04;;;;;;;6.07;5.68;;;;;;;28.74;29.22;96758.91;4907659;29;20175;-62
2021/05/11 15:12:29;;;;;;;6.00;5.55;;;;;;;28.81;28.99;96798.41;4906841;29;20048;-64
2021/05/11 15:14:55;;;;;;;14.32;6.13;;;;;;;29.18;28.37;96711.00;4909292;29;20043;-64
2021/05/11 15:19:50;;;;;;;5.50;5.00;;;;;;;30.38;26.81;96802.03;4907761;29;20040;-63
2021/05/11 15:22:16;;;;;;;5.75;5.38;;;;;;;30.47;26.21;96798.22;4908473;29;20036;-62
2021/05/11 15:24:42;;;;;;;5.80;5.45;;;;;;;30.87;26.04;96798.00;4907266;29;20066;-62
2021/05/11 15:27:08;;;;;;;7.43;6.50;;;;;;;30.97;26.19;96795.72;4908120;29;20075;-62
2021/05/11 15:29:34;;;;;;;5.60;5.20;;;;;;;30.50;25.90;96755.09;4908380;29;20040;-62
2021/05/11 15:31:59;;;;;;;8.15;6.32;;;;;;;29.62;26.56;96654.34;4908196;29;20044;-63
2021/05/11 15:34:25;;;;;;;11.73;7.07;;;;;;;29.82;27.41;96759.97;4908575;29;20570;-61
2021/05/11 15:36:51;;;;;;;12.10;7.50;;;;;;;28.52;28.60;96784.22;4908192;29;20043;-62
2021/05/11 15:39:16;;;;;;;6.15;5.15;;;;;;;27.61;29.79;96784.47;4908735;29;20486;-63
2021/05/11 15:41:42;;;;;;;9.85;5.90;;;;;;;26.49;30.95;96718.00;4908187;29;20028;-62
2021/05/11 15:44:08;;;;;;;9.30;7.80;;;;;;;26.34;31.68;96801.59;4908466;29;20522;-63
2021/05/11 15:46:33;;;;;;;7.93;4.80;;;;;;;25.63;32.64;96752.28;4906055;29;20090;-63
2021/05/11 15:48:59;;;;;;;5.05;4.50;;;;;;;25.01;32.93;96718.63;4906730;29;20683;-63
2021/05/11 15:51:25;;;;;;;7.05;4.47;;;;;;;25.27;33.60;96789.97;4907535;29;20056;-63
2021/05/11 15:53:50;;;;;;;5.43;4.82;;;;;;;25.14;34.04;96800.69;4907936;29;20024;-61
2021/05/11 15:56:16;;;;;;;7.85;4.35;;;;;;;24.75;34.13;96802.41;4906407;29;20036;-62
2021/05/11 15:58:41;;;;;;;5.30;4.80;;;;;;;24.67;35.08;96808.81;4906582;29;20052;-63
2021/05/11 16:01:07;;;;;;;4.88;4.47;;;;;;;24.87;34.45;96809.97;4906417;29;20346;-63
2021/05/11 16:03:33;;;;;;;7.18;5.78;;;;;;;24.90;33.72;96678.66;4908105;29;20044;-62
2021/05/11 16:05:58;;;;;;;6.38;4.65;;;;;;;26.87;31.97;96805.44;4907678;29;20088;-64
2021/05/11 16:08:27;;;;;;;5.32;4.88;;;;;;;28.06;30.27;96793.31;4908216;29;20480;-62
2021/05/11 16:10:52;;;;;;;6.10;5.68;;;;;;;28.81;29.18;96812.66;4907541;29;20419;-63